• Join FlightAware (Why Join?)
  • Login
  • US Flag 
02:08PM EDT


 

Airport Tracker/Info


-or-


 

Live Flight TrackerFlight Track Log ✈ AWI3725 ✈ 25-Apr-2014 ✈ KBGR - KDCA

Flight Track Log - Related Links

Times and Time Zones

All times are in EDT time to prevent confusion due to time zone crossing. See the AWI3725 flight status page for this flight to view local times or setup timezone preferences in your user account.

Time Position Orientation Groundspeed Altitude Reporting Facility
EDT Latitude Longitude Course Direction KTS MPH feet Rate Location/Type
12:53PM 44.8311 -68.8775 226° Southwest 166 191 2,900  Level Boston Center
12:54PM 44.7836 -68.9556 229° Southwest 218 251 5,700 2,580 Climbing Boston Center
12:55PM 44.7250 -69.0286 222° Southwest 270 311 8,200 2,340 Climbing Boston Center
12:56PM 44.5436 -69.1623 222° Southwest  Level FlightAware Approximate
12:56PM 44.6669 -69.1031 222° Southwest 277 319 10,600  Level Boston Center
12:57PM 44.4779 -69.2484 226° Southwest  Level FlightAware Approximate
12:57PM 44.6067 -69.1783 222° Southwest 284 327 12,600  Level Boston Center
12:58PM 44.4149 -69.3384 226° Southwest  Level FlightAware Approximate
12:58PM 44.5439 -69.2553 221° Southwest 292 336 14,800  Level Boston Center
12:59PM 44.4822 -69.3336 222° Southwest 295 339 16,600 1,740 Climbing Boston Center
01:00PM 44.4164 -69.4144 221° Southwest 307 353 18,400 1,740 Climbing Boston Center
01:01PM 44.3508 -69.4964 222° Southwest 308 354 20,200 1,260 Climbing Boston Center
01:03PM 44.2811 -69.5817 221° Southwest 328 377 21,000 1,020 Climbing Boston Center
01:04PM 44.2069 -69.6722 221° Southwest 346 398 22,300 1,260 Climbing Boston Center
01:05PM 44.1319 -69.7644 221° Southwest 352 405 23,600 1,140 Climbing Boston Center
01:06PM 44.0572 -69.8553 221° Southwest 353 406 24,700 960 Climbing Boston Center
01:07PM 43.9869 -69.9556 226° Southwest 359 413 25,600 1,020 Climbing Boston Center
01:08PM 43.8989 -70.0783 225° Southwest 369 425 26,800 1,020 Climbing Boston Center
01:09PM 43.8258 -70.1819 226° Southwest 375 432 27,700 780 Climbing Boston Center
01:10PM 43.7519 -70.2844 225° Southwest 375 432 28,500 780 Climbing Boston Center
01:11PM 43.6767 -70.3881 225° Southwest 376 433 29,400 720 Climbing Boston Center
01:12PM 43.6036 -70.4875 225° Southwest 368 423 30,000 240 Climbing Boston Center
01:13PM 43.5264 -70.5906 224° Southwest 382 440 30,000  Level Boston Center
01:14PM 43.4469 -70.7008 225° Southwest 400 460 30,000  Level Boston Center
01:15PM 43.3697 -70.8078 225° Southwest 408 470 30,000  Level Boston Center
01:16PM 43.2708 -70.9403 224° Southwest 416 479 30,000  Level Boston Center
01:17PM 43.1886 -71.0525 225° Southwest 417 480 30,000  Level Boston Center
01:18PM 43.1081 -71.1625 225° Southwest 416 479 30,000  Level Boston Center
01:19PM 43.0267 -71.2711 224° Southwest 413 475 30,000  Level Boston Center
01:20PM 42.9453 -71.3786 224° Southwest 411 473 30,000  Level Boston Center
01:21PM 42.8647 -71.4858 224° Southwest 409 471 30,000  Level Boston Center
01:22PM 42.7711 -71.6119 225° Southwest 408 470 30,000  Level Boston Center
01:23PM 42.6911 -71.7167 224° Southwest 403 464 30,000  Level Boston Center
01:24PM 42.6094 -71.8228 224° Southwest 404 465 30,000  Level Boston Center
01:25PM 42.5292 -71.9275 224° Southwest 403 464 30,000  Level Boston Center
01:26PM 42.4489 -72.0328 224° Southwest 401 461 30,000  Level Boston Center
01:27PM 42.3686 -72.1386 224° Southwest 401 461 30,000  Level Boston Center
01:28PM 42.2872 -72.2428 223° Southwest 401 461 30,000  Level Boston Center
01:29PM 42.2056 -72.3472 223° Southwest 401 461 30,000  Level Boston Center
01:30PM 42.1250 -72.4514 224° Southwest 401 461 30,000  Level Boston Center
01:31PM 42.0286 -72.5758 224° Southwest 400 460 30,000  Level Boston Center
01:32PM 41.9483 -72.6772 223° Southwest 399 459 30,000  Level Boston Center
01:33PM 41.8708 -72.7828 225° Southwest 398 458 30,000  Level Boston Center
01:34PM 41.7936 -72.8889 226° Southwest 398 458 30,000  Level Boston Center
01:35PM 41.7158 -72.9939 225° Southwest 398 458 30,000  Level Boston Center
01:36PM 41.6381 -73.0997 225° Southwest 397 457 30,000  Level Boston Center
01:37PM 41.5608 -73.2058 226° Southwest 397 457 30,000  Level Boston Center
01:38PM 41.4764 -73.3181 225° Southwest 397 457 30,000  Level Boston Center
01:39PM 41.3986 -73.4222 225° Southwest 398 458 30,000  Level Boston Center
01:40PM 41.3217 -73.5250 225° Southwest 397 457 30,000  Level Boston Center
01:42PM 41.2483 -73.6339 228° Southwest 397 457 30,000  Level Boston Center
01:43PM 41.1814 -73.7483 232° Southwest 397 457 30,000  Level Boston Center
01:44PM 41.1000 -73.8847 232° Southwest 396 456 30,000  Level Boston Center
01:45PM 41.0325 -73.9983 232° Southwest 396 456 30,000 -120 Level Boston Center
01:46PM 40.9644 -74.1128 232° Southwest 395 455 29,800 -540 Descending Boston Center
01:47PM 40.8947 -74.2289 232° Southwest 402 463 28,900 -900 Descending Boston Center
01:48PM 40.8222 -74.3461 231° Southwest 409 471 28,000 -480 Descending Boston Center
01:49PM 40.7467 -74.4733 232° Southwest 409 471 28,000  Level Boston Center
01:50PM 40.6761 -74.5856 230° Southwest 403 464 28,000  Level Boston Center
01:51PM 40.6047 -74.6936 229° Southwest 395 455 28,000  Level Boston Center
01:52PM 40.5314 -74.7983 227° Southwest 393 452 28,000  Level Boston Center
01:53PM 40.4453 -74.9228 228° Southwest 389 448 28,000 -180 Level Boston Center
01:54PM 40.3733 -75.0264 228° Southwest 388 447 27,700 -1,080 Descending Boston Center
01:55PM 40.3008 -75.1322 228° Southwest 388 447 25,900 -1,740 Descending Boston Center
01:56PM 40.2158 -75.2586 229° Southwest 395 455 23,900 -1,740 Descending New York Center
01:57PM 40.1453 -75.3572 227° Southwest 400 460 22,200 -1,020 Descending New York Center
01:58PM 40.0769 -75.4531 227° Southwest 388 447 22,000 -120 Descending New York Center
01:59PM 40.0128 -75.5408 226° Southwest 363 418 22,000  Level New York Center
02:00PM 39.9750 -75.6547 247° West 330 380 22,000  Level New York Center
02:01PM 39.9428 -75.7717 250° West 337 388 22,000 -60 Level New York Center
02:02PM 39.9089 -75.8858 249° West 343 395 21,900  Descending New York Center
02:03PM 39.8600 -76.0011 241° Southwest 350 403 22,000  Climbing New York Center
02:04PM 39.8053 -76.1025 235° Southwest 350 403 22,000 -540 Level New York Center
02:05PM 39.7486 -76.2036 234° Southwest 350 403 21,000 -2,400 Descending New York Center
02:07PM 39.6522 -76.3692 233° Southwest 368 423 15,800 -3,360 Descending Washington Center
02:08PM 39.6000 -76.4667 235° Southwest 346 398 12,500 -1,920 Descending Potomac TRACON
02:09PM 39.5156 -76.5069 200° South 313 360 11,900 -240 Descending Washington Center
02:10PM 39.4336 -76.5425 199° South 295 339 12,000  Climbing Washington Center
02:11PM 39.3667 -76.5667 196° South 288 331 11,900 -540 Descending Potomac TRACON
02:12PM 39.2833 -76.6167 205° Southwest 284 327 11,100 -960 Descending Potomac TRACON
02:13PM 39.2167 -76.6333 191° South 260 299 10,000 -600 Descending Potomac TRACON
02:14PM 39.1500 -76.6833 210° Southwest 248 285 9,900  Descending Potomac TRACON
02:15PM 39.1167 -76.7333 229° Southwest 185 213 10,000 -540 Climbing Potomac TRACON
02:16PM 39.0667 -76.7833 218° Southwest 193 222 8,900 -1,140 Descending Potomac TRACON
02:17PM 39.0333 -76.8333 229° Southwest 183 211 7,800 -1,200 Descending Potomac TRACON
02:18PM 39.0000 -76.8667 218° Southwest 180 207 6,500 -900 Descending Potomac TRACON
02:19PM 38.9667 -76.9167 229° Southwest 159 183 6,000 -360 Descending Potomac TRACON
02:19PM 38.9733 -76.9350 295° West 170 196 6,000  Level Washington Center
02:20PM 38.9761 -77.0075 273° West 167 192 6,000  Level Washington Center
02:21PM 39.0061 -77.0617 305° West 193 222 6,000 -540 Level Washington Center
02:22PM 39.0553 -77.0950 332° Northwest 197 227 5,000 -540 Descending Washington Center
02:23PM 39.1047 -77.1292 332° Northwest 201 231 5,000  Level Washington Center
02:24PM 39.1519 -77.1692 327° Northwest 201 231 5,000  Level Washington Center
02:25PM 39.1428 -77.2342 260° West 179 206 5,000 -60 Level Washington Center
02:26PM 39.0983 -77.2422 188° South 170 196 4,900 -480 Descending Washington Center
02:27PM 39.0553 -77.2517 190° South 160 184 4,000 -720 Descending Washington Center
02:28PM 39.0106 -77.2550 183° South 160 184 3,500 -540 Descending Washington Center
02:29PM 38.9842 -77.2036 123° Southeast 172 198 3,000 -660 Descending Washington Center
02:30PM 38.9636 -77.1508 117° Southeast 172 198 2,200 -780 Descending Washington Center
02:31PM 38.9247 -77.1153 145° Southeast 172 198 1,400 -840 Descending Washington Center
02:33PM 38.8989 -77.0644 123° Southeast 161 185 500 -540 Descending Washington Center
02:34PM 38.8664 -77.0317 142° Southeast 148 170 300 -240 Descending Washington Center